Summerville, Illinois
Current Conditions -  °F | °C
As of 6:50 PM on Saturday 22 Nov 2014 (Local Time) from KALN Reporting Station
Light Rain Light Rain  
Wind Chill: 52°   Ceiling: 9000
Heat Index: 52°   Visibility: 10mi
Dew Point: 50°   Wind: 14mph
Humidity: 94%   Direction: 180°S
Pressure: 29.94"   Gusts: NA
Location:  39.2057°N, 90.1607°W
Report Text: KALN 230050Z 18012KT 10SM -RA SCT021 OVC090 11/10 A2994
Loading
Personal Weather Stations






























Interactive Weather Map New forecast layout! Learn more

10-Day Weather Forecast

Advertisements
Track Severe Weather on mobile